createdAt,value
2022-09-07T00:01:43.627Z,100.00
2022-09-07T00:04:13.857Z,100.00
2022-09-07T00:06:44.228Z,100.00
2022-09-07T00:09:16.009Z,100.00
2022-09-07T00:11:46.849Z,100.00
2022-09-07T00:14:17.209Z,100.00
2022-09-07T00:16:47.707Z,100.00
2022-09-07T00:19:18.018Z,100.00
2022-09-07T00:21:48.617Z,100.00
2022-09-07T00:24:20.457Z,100.00
2022-09-07T00:26:50.850Z,100.00
2022-09-07T00:29:21.027Z,100.00
2022-09-07T00:31:51.539Z,100.00
2022-09-07T00:34:21.667Z,100.00
2022-09-07T00:36:52.107Z,100.00
2022-09-07T00:39:23.858Z,100.00
2022-09-07T00:41:54.357Z,100.00
2022-09-07T00:45:01.555Z,100.00
2022-09-07T00:47:39.767Z,100.00
2022-09-07T00:50:16.599Z,100.00
2022-09-07T00:52:50.187Z,100.00
2022-09-07T00:55:22.518Z,100.00
2022-09-07T00:57:56.327Z,100.00
2022-09-07T01:00:27.648Z,100.00
2022-09-07T01:02:58.661Z,100.00
2022-09-07T01:05:33.489Z,100.00
2022-09-07T01:08:04.140Z,100.00
2022-09-07T01:10:36.347Z,100.00
2022-09-07T01:13:07.298Z,100.00
2022-09-07T01:15:45.478Z,100.00
2022-09-07T01:18:26.825Z,100.00
2022-09-07T01:21:26.637Z,100.00
2022-09-07T01:24:32.928Z,100.00
2022-09-07T01:27:36.735Z,100.00
2022-09-07T01:30:11.324Z,100.00
2022-09-07T01:32:56.267Z,100.00
2022-09-07T01:35:47.197Z,100.00
2022-09-07T01:38:25.397Z,100.00
2022-09-07T01:41:04.249Z,100.00
2022-09-07T01:43:42.075Z,100.00
2022-09-07T01:46:19.257Z,100.00
2022-09-07T01:48:53.654Z,100.00
2022-09-07T01:51:27.725Z,100.00
2022-09-07T01:54:03.744Z,100.00
2022-09-07T01:56:38.164Z,100.00
2022-09-07T01:59:19.515Z,100.00
2022-09-07T02:01:58.080Z,100.00
2022-09-07T02:04:33.665Z,100.00
2022-09-07T02:07:11.924Z,100.00
2022-09-07T02:09:46.895Z,100.00
2022-09-07T02:12:23.084Z,100.00
2022-09-07T02:14:58.194Z,100.00
2022-09-07T02:17:34.754Z,100.00
2022-09-07T02:20:13.835Z,100.00
2022-09-07T02:22:47.665Z,100.00
2022-09-07T02:25:22.797Z,100.00
2022-09-07T02:27:56.894Z,100.00
2022-09-07T02:30:27.055Z,100.00
2022-09-07T02:32:58.924Z,100.00
2022-09-07T02:35:28.735Z,100.00
2022-09-07T02:38:00.154Z,100.00
2022-09-07T02:40:30.377Z,100.00
2022-09-07T02:43:03.601Z,100.00
2022-09-07T02:45:43.750Z,100.00
2022-09-07T02:48:28.088Z,100.00
2022-09-07T02:51:11.579Z,100.00
2022-09-07T02:54:04.249Z,100.00
2022-09-07T02:56:47.469Z,100.00
2022-09-07T02:59:41.870Z,100.00
2022-09-07T03:02:21.325Z,100.00
2022-09-07T03:05:01.063Z,100.00
2022-09-07T03:07:37.552Z,100.00
2022-09-07T03:10:11.749Z,100.00
2022-09-07T03:12:45.147Z,100.00
2022-09-07T03:15:16.749Z,100.00
2022-09-07T03:17:48.038Z,100.00
2022-09-07T03:20:19.959Z,100.00
2022-09-07T03:22:51.979Z,100.00
2022-09-07T03:25:23.550Z,100.00
2022-09-07T03:27:53.802Z,100.00
2022-09-07T03:30:24.229Z,100.00
2022-09-07T03:32:54.549Z,100.00
2022-09-07T03:35:26.089Z,100.00
2022-09-07T03:37:56.473Z,100.00
2022-09-07T03:40:26.558Z,100.00
2022-09-07T03:42:56.617Z,100.00
2022-09-07T03:45:27.209Z,100.00
2022-09-07T03:47:57.348Z,100.00
2022-09-07T03:50:29.470Z,100.00
2022-09-07T03:53:00.010Z,100.00
2022-09-07T03:55:30.168Z,100.00
2022-09-07T03:58:00.657Z,100.00
2022-09-07T04:00:30.869Z,100.00
2022-09-07T04:03:01.377Z,100.00
2022-09-07T04:05:34.129Z,100.00
2022-09-07T04:08:04.799Z,100.00
2022-09-07T04:10:38.839Z,100.00
2022-09-07T04:13:10.429Z,100.00
2022-09-07T04:15:40.840Z,100.00
2022-09-07T04:18:11.279Z,100.00
2022-09-07T04:20:42.999Z,100.00
2022-09-07T04:23:13.509Z,100.00
2022-09-07T04:25:49.960Z,100.00
2022-09-07T04:28:22.277Z,100.00
2022-09-07T04:30:52.491Z,100.00
2022-09-07T04:33:23.216Z,100.00
2022-09-07T04:35:54.775Z,100.00
2022-09-07T04:38:25.444Z,100.00
2022-09-07T04:41:02.097Z,100.00
2022-09-07T04:43:32.657Z,100.00
2022-09-07T04:46:05.688Z,100.00
2022-09-07T04:48:36.608Z,100.00
2022-09-07T04:51:09.597Z,100.00
2022-09-07T04:53:40.494Z,100.00
2022-09-07T04:56:15.040Z,100.00
2022-09-07T04:58:48.296Z,100.00
2022-09-07T05:01:20.535Z,100.00
2022-09-07T05:03:51.726Z,100.00
2022-09-07T05:06:24.430Z,100.00
2022-09-07T05:08:56.296Z,100.00
2022-09-07T05:11:29.185Z,100.00
2022-09-07T05:14:00.549Z,100.00
2022-09-07T05:16:31.555Z,100.00
2022-09-07T05:19:03.747Z,100.00
2022-09-07T05:21:36.794Z,100.00
2022-09-07T05:24:08.486Z,100.00
2022-09-07T05:26:40.098Z,100.00
2022-09-07T05:32:00.825Z,100.00
2022-09-07T05:34:32.674Z,100.00
2022-09-07T05:37:04.875Z,100.00
2022-09-07T05:39:35.355Z,100.00
2022-09-07T05:42:06.515Z,100.00
2022-09-07T05:44:45.009Z,100.00
2022-09-07T05:47:16.606Z,100.00
2022-09-07T05:49:47.105Z,100.00
2022-09-07T05:52:18.657Z,100.00
2022-09-07T05:54:49.056Z,100.00
2022-09-07T05:57:19.507Z,100.00
2022-09-07T05:59:50.364Z,100.00
2022-09-07T06:02:21.237Z,100.00
2022-09-07T06:04:51.557Z,100.00
2022-09-07T06:07:29.584Z,100.00
2022-09-07T06:12:51.377Z,100.00
2022-09-07T06:15:22.125Z,100.00
2022-09-07T06:17:54.035Z,100.00
2022-09-07T06:20:24.393Z,100.00
2022-09-07T06:22:57.518Z,100.00
2022-09-07T06:25:27.734Z,100.00
2022-09-07T06:27:59.997Z,100.00
2022-09-07T06:30:30.515Z,100.00
2022-09-07T06:33:01.608Z,100.00
2022-09-07T06:35:32.633Z,94.48
2022-09-07T06:38:05.046Z,90.46
2022-09-07T06:40:38.037Z,87.21
2022-09-07T06:43:09.774Z,84.21
2022-09-07T06:45:40.044Z,83.66
2022-09-07T06:48:10.516Z,83.14
2022-09-07T06:50:41.005Z,77.68
2022-09-07T06:56:06.958Z,74.89
2022-09-07T06:58:42.162Z,71.31
2022-09-07T07:01:15.718Z,68.92
2022-09-07T07:03:46.967Z,69.61
2022-09-07T07:06:17.875Z,68.26
2022-09-07T07:08:49.986Z,67.31
2022-09-07T07:11:20.216Z,65.80
2022-09-07T07:13:50.617Z,66.18
2022-09-07T07:16:20.958Z,66.79
2022-09-07T07:18:52.694Z,64.71
2022-09-07T07:21:22.527Z,60.06
2022-09-07T07:23:55.674Z,61.47
2022-09-07T07:26:27.924Z,61.89
2022-09-07T07:31:35.431Z,64.47
2022-09-07T07:34:05.964Z,64.36
2022-09-07T07:36:36.083Z,65.73
2022-09-07T07:39:08.443Z,65.26
2022-09-07T07:42:00.318Z,63.77
2022-09-07T07:44:37.948Z,61.73
2022-09-07T07:47:09.597Z,61.14
2022-09-07T07:49:42.898Z,57.52
2022-09-07T07:57:58.568Z,52.20
2022-09-07T08:00:57.264Z,50.78
2022-09-07T08:03:29.633Z,50.38
2022-09-07T08:06:38.335Z,49.59
2022-09-07T08:09:18.358Z,46.91
2022-09-07T08:11:51.567Z,47.58
2022-09-07T08:14:23.308Z,47.86
2022-09-07T08:16:53.895Z,47.63
2022-09-07T08:19:37.885Z,48.41
2022-09-07T08:22:13.404Z,48.78
2022-09-07T08:24:45.937Z,48.83
2022-09-07T08:27:21.574Z,48.62
2022-09-07T08:29:55.676Z,48.58
2022-09-07T08:32:30.728Z,50.93
2022-09-07T08:35:12.387Z,50.28
2022-09-07T08:37:50.666Z,47.42
2022-09-07T08:40:24.597Z,46.99
2022-09-07T08:43:09.165Z,47.20
2022-09-07T08:45:46.148Z,45.91
2022-09-07T08:48:34.132Z,44.51
2022-09-07T08:51:30.405Z,44.88
2022-09-07T08:54:06.917Z,43.79
2022-09-07T09:01:30.495Z,45.72
2022-09-07T09:06:11.038Z,43.40
2022-09-07T09:07:19.285Z,41.94
2022-09-07T09:10:21.636Z,42.58
2022-09-07T09:13:04.767Z,41.97
2022-09-07T09:15:54.936Z,44.01
2022-09-07T09:18:45.186Z,42.81
2022-09-07T09:21:17.256Z,41.21
2022-09-07T09:23:51.716Z,39.74
2022-09-07T09:26:26.766Z,39.76
2022-09-07T09:28:57.775Z,40.79
2022-09-07T09:31:36.410Z,39.60
2022-09-07T09:34:13.717Z,38.09
2022-09-07T09:36:47.000Z,37.86
2022-09-07T09:39:29.668Z,37.61
2022-09-07T09:42:26.746Z,39.19
2022-09-07T09:45:29.970Z,38.00
2022-09-07T09:48:08.005Z,39.07
2022-09-07T09:54:29.008Z,37.48
2022-09-07T09:57:13.632Z,38.91
2022-09-07T10:00:08.519Z,38.17
2022-09-07T10:06:55.891Z,36.77
2022-09-07T10:10:05.731Z,36.00
2022-09-07T10:12:59.776Z,37.64
2022-09-07T10:16:25.426Z,39.04
2022-09-07T10:19:02.176Z,38.12
2022-09-07T10:21:34.454Z,38.36
2022-09-07T10:24:17.594Z,38.17
2022-09-07T10:27:03.405Z,40.44
2022-09-07T10:30:33.897Z,39.85
2022-09-07T10:33:11.976Z,40.76
2022-09-07T10:35:50.965Z,40.53
2022-09-07T10:38:32.892Z,41.72
2022-09-07T10:41:07.734Z,39.10
2022-09-07T10:43:51.757Z,38.38
2022-09-07T10:46:57.696Z,42.00
2022-09-07T10:49:35.307Z,39.53
2022-09-07T10:57:09.897Z,40.21
2022-09-07T11:00:11.488Z,41.24
2022-09-07T11:08:04.316Z,40.96
2022-09-07T11:10:57.055Z,40.94
2022-09-07T11:14:12.134Z,40.65
2022-09-07T11:16:55.508Z,40.43
2022-09-07T11:19:41.604Z,40.28
2022-09-07T11:22:38.966Z,40.11
2022-09-07T11:25:29.428Z,39.08
2022-09-07T11:28:19.024Z,38.93
2022-09-07T11:30:59.302Z,40.16
2022-09-07T11:33:35.275Z,40.34
2022-09-07T11:36:12.445Z,39.77
2022-09-07T11:38:47.406Z,38.40
2022-09-07T11:41:30.649Z,39.54
2022-09-07T11:44:23.867Z,39.98
2022-09-07T11:47:06.627Z,39.23
2022-09-07T11:49:37.316Z,39.77
2022-09-07T11:52:17.396Z,38.43
2022-09-07T11:54:53.676Z,39.45
2022-09-07T11:57:55.816Z,39.12
2022-09-07T12:00:33.244Z,37.65
2022-09-07T12:03:59.812Z,39.42
2022-09-07T12:07:28.597Z,38.75
2022-09-07T12:10:34.935Z,37.57
2022-09-07T12:13:37.485Z,37.07
2022-09-07T12:16:27.885Z,37.54
2022-09-07T12:19:25.422Z,38.15
2022-09-07T12:22:29.407Z,37.37
2022-09-07T12:25:26.574Z,36.71
2022-09-07T12:28:39.642Z,38.56
2022-09-07T12:31:58.583Z,37.72
2022-09-07T12:35:01.936Z,38.83
2022-09-07T12:37:41.736Z,36.94
2022-09-07T12:41:02.283Z,38.07
2022-09-07T12:44:11.486Z,36.82
2022-09-07T12:46:58.559Z,36.65
2022-09-07T12:49:51.807Z,37.69
2022-09-07T12:52:58.255Z,37.18
2022-09-07T12:56:18.140Z,38.33
2022-09-07T12:59:37.636Z,36.73
2022-09-07T13:02:34.252Z,37.28
2022-09-07T13:05:18.586Z,37.68
2022-09-07T13:08:15.007Z,37.74
2022-09-07T13:10:47.786Z,36.65
2022-09-07T13:21:33.515Z,36.03
2022-09-07T13:24:55.606Z,35.42
2022-09-07T13:36:40.343Z,40.80
2022-09-07T13:40:04.613Z,44.37
2022-09-07T13:43:49.968Z,44.89
2022-09-07T13:47:47.505Z,44.21
2022-09-07T13:51:55.987Z,43.43
2022-09-07T13:55:15.087Z,44.38
2022-09-07T13:58:00.975Z,45.76
2022-09-07T14:00:52.793Z,46.24
2022-09-07T14:03:32.065Z,46.68
2022-09-07T14:07:05.956Z,46.61
2022-09-07T14:10:25.153Z,47.22
2022-09-07T14:13:29.382Z,47.51
2022-09-07T14:16:06.116Z,47.57
2022-09-07T14:18:36.576Z,48.16
2022-09-07T14:21:09.441Z,48.46
2022-09-07T14:23:40.281Z,49.02
2022-09-07T14:26:17.319Z,49.23
2022-09-07T14:28:51.463Z,48.97
2022-09-07T14:31:23.915Z,49.08
2022-09-07T14:33:55.870Z,49.46
2022-09-07T14:36:45.340Z,49.54
2022-09-07T14:39:18.876Z,49.36
2022-09-07T14:41:49.628Z,47.91
2022-09-07T14:44:36.753Z,47.84
2022-09-07T14:47:13.459Z,48.10
2022-09-07T14:49:43.808Z,47.74
2022-09-07T14:52:21.601Z,48.72
2022-09-07T14:54:55.062Z,48.62
2022-09-07T14:57:51.563Z,49.97
2022-09-07T15:00:35.931Z,49.54
2022-09-07T15:03:38.360Z,50.13
2022-09-07T15:06:09.775Z,49.31
2022-09-07T15:08:43.439Z,50.32
2022-09-07T15:14:12.978Z,50.99
2022-09-07T15:16:46.796Z,50.59
2022-09-07T15:19:32.448Z,50.65
2022-09-07T15:22:14.200Z,50.02
2022-09-07T15:24:45.985Z,51.94
2022-09-07T15:27:23.320Z,51.72
2022-09-07T15:29:53.628Z,51.26
2022-09-07T15:32:25.167Z,52.20
2022-09-07T15:34:55.618Z,52.17
2022-09-07T15:40:20.570Z,52.00
2022-09-07T15:43:19.471Z,52.84
2022-09-07T15:45:42.250Z,51.89
2022-09-07T15:48:16.967Z,53.09
2022-09-07T15:50:47.318Z,53.28
2022-09-07T15:56:08.595Z,53.46
2022-09-07T15:58:38.644Z,54.59
2022-09-07T16:04:04.685Z,54.32
2022-09-07T16:06:35.902Z,54.53
2022-09-07T16:09:06.531Z,55.39
2022-09-07T16:11:37.649Z,55.09
2022-09-07T16:14:08.018Z,55.03
2022-09-07T16:19:34.621Z,56.32
2022-09-07T16:22:05.860Z,56.38
2022-09-07T16:24:36.698Z,57.26
2022-09-07T16:27:08.410Z,56.77
2022-09-07T16:29:39.127Z,57.27
2022-09-07T16:35:01.668Z,57.97
2022-09-07T16:37:32.334Z,58.36
2022-09-07T16:40:02.532Z,59.33
2022-09-07T16:42:37.100Z,58.62
2022-09-07T16:47:59.220Z,61.23
2022-09-07T16:50:31.080Z,60.04
2022-09-07T16:53:01.036Z,60.95
2022-09-07T16:55:31.408Z,60.94
2022-09-07T17:00:51.850Z,64.24
2022-09-07T17:03:21.896Z,65.02
2022-09-07T17:05:53.718Z,64.80
2022-09-07T17:08:23.760Z,65.80
2022-09-07T17:10:59.600Z,66.71
2022-09-07T17:13:29.969Z,67.29
2022-09-07T17:16:04.840Z,67.11
2022-09-07T17:21:30.360Z,67.37
2022-09-07T17:24:00.616Z,67.57
2022-09-07T17:26:31.351Z,68.93
2022-09-07T17:29:01.929Z,67.81
2022-09-07T17:34:24.340Z,71.79
2022-09-07T17:36:56.078Z,73.54
2022-09-07T17:39:25.711Z,73.63
2022-09-07T17:41:55.910Z,74.70
2022-09-07T17:44:26.108Z,74.87
2022-09-07T17:46:56.179Z,76.40
2022-09-07T17:49:27.248Z,77.29
2022-09-07T17:52:00.274Z,77.76
2022-09-07T17:54:30.728Z,78.51
2022-09-07T17:57:00.980Z,78.88
2022-09-07T18:02:22.528Z,81.14
2022-09-07T18:04:52.726Z,80.65
2022-09-07T18:07:24.198Z,80.66
2022-09-07T18:09:54.428Z,82.29
2022-09-07T18:12:24.320Z,81.85
2022-09-07T18:14:54.188Z,83.90
2022-09-07T18:17:24.339Z,83.40
2022-09-07T18:19:54.890Z,85.27
2022-09-07T18:22:26.812Z,85.27
2022-09-07T18:24:58.978Z,85.24
2022-09-07T18:27:31.348Z,85.28
2022-09-07T18:30:01.287Z,85.90
2022-09-07T18:32:31.979Z,85.84
2022-09-07T18:35:02.131Z,88.39
2022-09-07T18:37:36.528Z,89.07
2022-09-07T18:40:09.495Z,90.58
2022-09-07T18:42:43.430Z,91.47
2022-09-07T18:45:29.702Z,91.51
2022-09-07T18:48:00.489Z,92.28
2022-09-07T18:50:32.216Z,93.66
2022-09-07T18:53:15.457Z,93.42
2022-09-07T18:55:47.124Z,95.60
2022-09-07T18:58:18.023Z,95.09
2022-09-07T19:00:54.219Z,97.72
2022-09-07T19:03:26.188Z,98.54
2022-09-07T19:06:00.854Z,99.45
2022-09-07T19:08:35.295Z,99.25
2022-09-07T19:11:09.386Z,98.46
2022-09-07T19:13:40.904Z,98.38
2022-09-07T19:16:13.783Z,98.12
2022-09-07T19:18:49.019Z,98.01
2022-09-07T19:21:44.227Z,98.41
2022-09-07T19:24:19.208Z,99.15
2022-09-07T19:26:51.211Z,100.00
2022-09-07T19:29:23.671Z,100.00
2022-09-07T19:32:07.890Z,100.00
2022-09-07T19:34:40.038Z,100.00
2022-09-07T19:37:12.736Z,100.00
2022-09-07T19:39:46.530Z,100.00
2022-09-07T19:42:17.376Z,100.00
2022-09-07T19:44:48.030Z,100.00
2022-09-07T19:47:19.168Z,100.00
2022-09-07T19:49:49.979Z,100.00
2022-09-07T19:52:20.191Z,100.00
2022-09-07T19:54:52.062Z,100.00
2022-09-07T19:57:21.816Z,100.00
2022-09-07T19:59:53.423Z,100.00
2022-09-07T20:02:23.591Z,100.00
2022-09-07T20:04:54.389Z,100.00
2022-09-07T20:07:24.851Z,100.00
2022-09-07T20:09:56.691Z,100.00
2022-09-07T20:12:26.712Z,100.00
2022-09-07T20:14:57.283Z,100.00
2022-09-07T20:17:30.606Z,100.00
2022-09-07T20:20:03.672Z,100.00
2022-09-07T20:22:33.932Z,100.00
2022-09-07T20:25:09.180Z,100.00
2022-09-07T20:27:41.441Z,100.00
2022-09-07T20:30:13.058Z,100.00
2022-09-07T20:32:43.261Z,100.00
2022-09-07T20:35:13.861Z,100.00
2022-09-07T20:37:44.011Z,100.00
2022-09-07T20:40:16.045Z,100.00
2022-09-07T20:42:46.191Z,100.00
2022-09-07T20:45:16.703Z,100.00
2022-09-07T20:47:48.542Z,100.00
2022-09-07T20:50:19.551Z,100.00
2022-09-07T20:52:49.691Z,100.00
2022-09-07T20:55:25.581Z,100.00
2022-09-07T20:57:56.722Z,100.00
2022-09-07T21:00:26.931Z,100.00
2022-09-07T21:02:58.091Z,100.00
2022-09-07T21:05:28.412Z,100.00
2022-09-07T21:08:04.872Z,100.00
2022-09-07T21:10:40.451Z,100.00
2022-09-07T21:13:11.022Z,100.00
2022-09-07T21:15:42.310Z,100.00
2022-09-07T21:18:16.831Z,100.00
2022-09-07T21:21:18.501Z,100.00
2022-09-07T21:23:47.672Z,100.00
2022-09-07T21:26:22.913Z,100.00
2022-09-07T21:28:57.536Z,100.00
2022-09-07T21:31:28.975Z,100.00
2022-09-07T21:34:00.871Z,100.00
2022-09-07T21:36:32.580Z,100.00
2022-09-07T21:39:02.752Z,100.00
2022-09-07T21:41:34.661Z,100.00
2022-09-07T21:44:05.803Z,100.00
2022-09-07T21:46:38.089Z,100.00
2022-09-07T21:49:08.391Z,100.00
2022-09-07T21:51:38.745Z,100.00
2022-09-07T21:54:09.338Z,100.00
2022-09-07T21:56:46.357Z,100.00
2022-09-07T21:59:16.901Z,100.00
2022-09-07T22:01:47.302Z,100.00
2022-09-07T22:04:17.721Z,100.00
2022-09-07T22:06:48.362Z,100.00
2022-09-07T22:09:18.541Z,100.00
2022-09-07T22:11:50.766Z,100.00
2022-09-07T22:14:21.093Z,100.00
2022-09-07T22:16:51.579Z,100.00
2022-09-07T22:19:22.561Z,100.00
2022-09-07T22:21:54.061Z,100.00
2022-09-07T22:24:24.101Z,100.00
2022-09-07T22:26:56.062Z,100.00
2022-09-07T22:29:26.421Z,100.00
2022-09-07T22:31:56.621Z,100.00
2022-09-07T22:34:27.073Z,100.00
2022-09-07T22:36:57.482Z,100.00
2022-09-07T22:39:27.687Z,100.00
2022-09-07T22:41:59.571Z,100.00
2022-09-07T22:44:30.309Z,100.00
2022-09-07T22:47:00.904Z,100.00
2022-09-07T22:49:31.161Z,100.00
2022-09-07T22:52:01.623Z,100.00
2022-09-07T22:54:31.991Z,100.00
2022-09-07T22:57:03.942Z,100.00
2022-09-07T22:59:34.212Z,100.00
2022-09-07T23:02:05.089Z,100.00
2022-09-07T23:04:35.219Z,100.00
2022-09-07T23:07:07.922Z,100.00
2022-09-07T23:09:38.035Z,100.00
2022-09-07T23:12:10.275Z,100.00
2022-09-07T23:14:40.446Z,100.00
2022-09-07T23:17:10.857Z,100.00
2022-09-07T23:19:41.016Z,100.00
2022-09-07T23:22:11.455Z,100.00
2022-09-07T23:24:41.907Z,100.00
2022-09-07T23:27:13.676Z,100.00
2022-09-07T23:29:43.328Z,100.00
2022-09-07T23:32:13.648Z,100.00
2022-09-07T23:34:43.669Z,100.00
2022-09-07T23:37:14.070Z,100.00
2022-09-07T23:39:44.894Z,100.00
2022-09-07T23:42:16.999Z,100.00
2022-09-07T23:44:48.749Z,100.00
2022-09-07T23:47:19.181Z,100.00
2022-09-07T23:49:49.169Z,100.00
2022-09-07T23:52:19.169Z,100.00
2022-09-07T23:54:49.442Z,100.00
2022-09-07T23:57:21.018Z,100.00
2022-09-07T23:59:51.539Z,100.00
